Time;durP1;ratioP1;P1;durP2;ratioP2;P2;SDS_P1;SDS_P2;PMS_P1;PMS_P2;Temp;Humidity;BMP_temperature;BMP_pressure;BME280_temperature;BME280_humidity;BME280_pressure;Samples;Min_cycle;Max_cycle;Signal;HPM_P1;HPM_P2
2021/08/27 00:00:28;;;;;;;8.95;2.30;;;15.30;99.90;;;;;;5074563;28;20032;-73
2021/08/27 00:02:53;;;;;;;10.70;2.22;;;15.20;99.90;;;;;;5073173;28;20583;-73
2021/08/27 00:05:19;;;;;;;9.93;1.95;;;15.20;99.90;;;;;;5074442;28;20036;-73
2021/08/27 00:07:45;;;;;;;6.35;1.95;;;15.10;99.90;;;;;;5074479;28;20048;-73
2021/08/27 00:10:11;;;;;;;8.85;2.17;;;15.10;99.90;;;;;;5074288;28;20037;-73
2021/08/27 00:12:37;;;;;;;10.65;3.35;;;15.00;99.90;;;;;;5074352;28;20064;-73
2021/08/27 00:15:06;;;;;;;11.52;2.80;;;15.00;99.90;;;;;;5074541;28;20101;-73
2021/08/27 00:17:32;;;;;;;8.93;2.85;;;15.10;99.90;;;;;;5072886;28;20040;-73
2021/08/27 00:19:58;;;;;;;11.50;2.30;;;15.00;99.90;;;;;;5073727;28;20127;-73
2021/08/27 00:22:23;;;;;;;7.53;2.20;;;15.00;99.90;;;;;;5073822;28;20074;-73
2021/08/27 00:24:49;;;;;;;8.20;2.08;;;15.00;99.90;;;;;;5074500;28;20033;-73
2021/08/27 00:27:15;;;;;;;11.23;2.63;;;15.00;99.90;;;;;;5074336;28;20476;-73
2021/08/27 00:29:40;;;;;;;7.00;2.10;;;14.90;99.90;;;;;;5073557;28;20398;-73
2021/08/27 00:32:06;;;;;;;8.13;2.20;;;14.90;99.90;;;;;;5074209;28;20040;-73
2021/08/27 00:34:32;;;;;;;11.48;3.45;;;14.90;99.90;;;;;;5074270;28;20040;-73
2021/08/27 00:36:57;;;;;;;7.82;1.98;;;14.80;99.90;;;;;;5073815;28;20040;-73
2021/08/27 00:39:23;;;;;;;5.00;1.90;;;14.90;99.90;;;;;;5073397;28;20138;-73
2021/08/27 00:41:48;;;;;;;6.25;2.47;;;14.90;99.90;;;;;;5073716;28;20550;-73
2021/08/27 00:44:14;;;;;;;7.68;2.40;;;14.90;99.90;;;;;;5073587;28;20499;-73
2021/08/27 00:46:39;;;;;;;8.07;2.58;;;14.80;99.90;;;;;;5073770;28;20036;-73
2021/08/27 00:49:05;;;;;;;9.15;2.20;;;14.90;99.90;;;;;;5073308;28;20396;-73
2021/08/27 00:51:32;;;;;;;6.90;2.53;;;14.90;99.90;;;;;;5073769;28;20036;-73
2021/08/27 00:53:57;;;;;;;5.80;2.42;;;14.90;99.90;;;;;;5072867;28;20194;-73
2021/08/27 00:56:23;;;;;;;11.43;2.38;;;15.00;99.90;;;;;;5073560;28;20123;-73
2021/08/27 00:58:49;;;;;;;8.50;2.60;;;15.00;99.90;;;;;;5072124;28;20115;-73
2021/08/27 01:01:14;;;;;;;10.75;2.97;;;15.00;99.90;;;;;;5072596;28;20040;-73
2021/08/27 01:03:40;;;;;;;6.68;2.38;;;15.00;99.90;;;;;;5072163;28;20536;-73
2021/08/27 01:06:17;;;;;;;11.00;2.90;;;15.00;99.90;;;;;;5073369;28;20120;-73
2021/08/27 01:08:58;;;;;;;7.15;2.25;;;15.10;99.90;;;;;;5073013;28;20090;-72
2021/08/27 01:11:34;;;;;;;7.45;2.00;;;15.10;99.90;;;;;;5071861;28;20377;-72
2021/08/27 01:14:41;;;;;;;11.75;2.28;;;15.10;99.90;;;;;;5071786;28;20051;-72
2021/08/27 01:17:21;;;;;;;7.63;2.63;;;15.10;99.90;;;;;;5071019;28;20131;-73
2021/08/27 01:20:02;;;;;;;9.63;2.08;;;15.20;99.90;;;;;;5071067;28;20048;-73
2021/08/27 01:22:57;;;;;;;8.00;3.03;;;15.20;99.90;;;;;;5064968;28;20087;-73
2021/08/27 01:25:24;;;;;;;10.48;2.92;;;15.30;99.90;;;;;;5073653;28;20043;-73
2021/08/27 01:27:52;;;;;;;9.88;2.88;;;15.20;99.90;;;;;;5073546;28;20063;-73
2021/08/27 01:30:51;;;;;;;11.30;3.25;;;15.20;99.90;;;;;;5073303;28;20040;-74
2021/08/27 01:33:20;;;;;;;14.30;2.78;;;15.10;99.90;;;;;;5070340;28;20063;-73
2021/08/27 01:35:51;;;;;;;7.15;2.70;;;15.00;99.90;;;;;;5072035;28;20048;-73
2021/08/27 01:38:19;;;;;;;7.13;2.30;;;14.80;99.90;;;;;;5073044;28;20069;-73
2021/08/27 01:40:49;;;;;;;9.15;2.47;;;14.80;99.90;;;;;;5071848;28;20109;-73
2021/08/27 01:43:16;;;;;;;8.77;2.60;;;14.80;99.90;;;;;;5072908;28;20047;-73
2021/08/27 01:45:46;;;;;;;10.65;2.65;;;14.70;99.90;;;;;;5072839;28;20401;-73
2021/08/27 01:48:12;;;;;;;11.82;3.10;;;14.80;99.90;;;;;;5073096;28;20045;-73
2021/08/27 01:50:39;;;;;;;10.05;2.33;;;14.80;99.90;;;;;;5071557;28;20040;-73
2021/08/27 01:53:05;;;;;;;8.43;2.30;;;14.80;99.90;;;;;;5073257;28;20469;-73
2021/08/27 01:55:33;;;;;;;14.85;3.28;;;14.80;99.90;;;;;;5071499;28;20037;-73
2021/08/27 01:58:02;;;;;;;5.20;2.17;;;14.80;99.90;;;;;;5072538;28;20068;-73
2021/08/27 02:00:28;;;;;;;12.32;2.92;;;14.90;99.90;;;;;;5071341;28;20036;-73
2021/08/27 02:02:56;;;;;;;11.35;2.13;;;14.90;99.90;;;;;;5072709;28;20049;-73
2021/08/27 02:05:24;;;;;;;10.00;2.85;;;14.90;99.90;;;;;;5073267;28;20047;-73
2021/08/27 02:07:51;;;;;;;7.65;2.17;;;14.90;99.90;;;;;;5076931;28;20408;-73
2021/08/27 02:10:17;;;;;;;9.70;2.30;;;14.80;99.90;;;;;;5076362;28;20036;-73
2021/08/27 02:12:43;;;;;;;9.98;2.30;;;14.80;99.90;;;;;;5076633;28;20094;-73
2021/08/27 02:15:09;;;;;;;9.93;1.95;;;14.80;99.90;;;;;;5075299;28;20045;-73
2021/08/27 02:17:35;;;;;;;13.65;2.42;;;14.80;99.90;;;;;;5076647;28;20044;-73
2021/08/27 02:20:01;;;;;;;12.38;3.08;;;14.80;99.90;;;;;;5076127;28;20044;-73
2021/08/27 02:22:31;;;;;;;8.00;3.25;;;14.80;99.90;;;;;;5076411;28;20044;-73
2021/08/27 02:25:31;;;;;;;9.27;2.47;;;14.80;99.90;;;;;;5076269;28;20038;-73
2021/08/27 02:27:58;;;;;;;9.05;2.47;;;14.80;99.90;;;;;;5075095;28;20056;-73
2021/08/27 02:30:25;;;;;;;8.40;2.10;;;14.80;99.90;;;;;;5076044;28;20051;-73
2021/08/27 02:32:51;;;;;;;10.63;3.45;;;14.80;99.90;;;;;;5076327;28;20107;-73
2021/08/27 02:35:17;;;;;;;11.57;3.05;;;14.70;99.90;;;;;;5076014;28;20481;-73
2021/08/27 02:37:46;;;;;;;8.25;2.65;;;14.80;99.90;;;;;;5074907;28;20124;-73
2021/08/27 02:40:13;;;;;;;14.15;2.97;;;14.80;99.90;;;;;;5076020;28;20040;-73
2021/08/27 02:42:39;;;;;;;10.55;3.72;;;14.80;99.90;;;;;;5075071;28;20044;-73
2021/08/27 02:45:07;;;;;;;11.13;2.55;;;14.80;99.90;;;;;;5076037;28;20044;-74
2021/08/27 02:47:33;;;;;;;9.48;2.65;;;14.80;99.90;;;;;;5076049;28;20094;-73
2021/08/27 02:49:59;;;;;;;10.15;2.80;;;14.80;99.90;;;;;;5075659;28;20040;-74
2021/08/27 02:52:32;;;;;;;8.30;2.63;;;14.80;99.90;;;;;;5075859;28;20032;-74
2021/08/27 02:55:06;;;;;;;;;;;14.90;99.90;;;;;;5076695;28;20523;-73
2021/08/27 02:58:01;;;;;;;13.30;2.30;;;14.90;99.90;;;;;;5076477;28;19920;-74
2021/08/27 03:00:33;;;;;;;9.63;2.53;;;15.00;99.90;;;;;;5075215;28;20055;-73
2021/08/27 03:03:01;;;;;;;10.68;2.65;;;15.00;99.90;;;;;;5076114;28;20028;-73
2021/08/27 03:05:32;;;;;;;11.98;3.08;;;15.00;99.90;;;;;;5075888;28;20549;-73
2021/08/27 03:08:03;;;;;;;7.90;2.88;;;14.90;99.90;;;;;;5076374;28;20052;-73
2021/08/27 03:10:42;;;;;;;11.13;2.92;;;14.90;99.90;;;;;;5074447;28;20084;-73
2021/08/27 03:13:14;;;;;;;9.05;2.33;;;14.90;99.90;;;;;;5057895;28;20056;-73
2021/08/27 03:16:00;;;;;;;9.85;2.90;;;14.90;99.90;;;;;;5075890;28;20045;-74
2021/08/27 03:18:53;;;;;;;9.27;2.25;;;14.90;99.90;;;;;;5073778;28;20495;-73
2021/08/27 03:21:39;;;;;;;8.90;2.55;;;14.90;99.90;;;;;;5074562;28;20044;-73
2021/08/27 03:24:30;;;;;;;13.48;2.72;;;14.90;99.90;;;;;;5076089;28;20049;-73
2021/08/27 03:27:00;;;;;;;11.00;2.45;;;14.90;99.90;;;;;;5075005;28;20110;-73
2021/08/27 03:29:30;;;;;;;11.57;2.10;;;14.90;99.90;;;;;;5075115;28;20094;-71
2021/08/27 03:31:57;;;;;;;10.52;2.50;;;14.90;99.90;;;;;;5075201;28;20124;-71
2021/08/27 03:34:24;;;;;;;9.55;2.15;;;14.90;99.90;;;;;;5074217;28;20123;-71
2021/08/27 03:36:50;;;;;;;13.23;2.40;;;14.90;99.90;;;;;;5075062;28;20039;-73
2021/08/27 03:39:17;;;;;;;10.55;2.15;;;14.80;99.90;;;;;;5074962;28;20028;-71
2021/08/27 03:41:43;;;;;;;7.18;2.00;;;14.90;99.90;;;;;;5074849;28;20082;-71
2021/08/27 03:44:09;;;;;;;9.13;3.50;;;14.80;99.90;;;;;;5075287;28;20068;-72
2021/08/27 03:46:37;;;;;;;8.18;2.40;;;14.80;99.90;;;;;;5074875;28;20036;-71
2021/08/27 03:49:02;;;;;;;13.00;2.67;;;14.80;99.90;;;;;;5074648;28;20041;-71
2021/08/27 03:51:28;;;;;;;13.02;2.55;;;14.80;99.90;;;;;;5075274;28;20036;-71
2021/08/27 03:53:54;;;;;;;10.10;2.25;;;14.80;99.90;;;;;;5074756;28;20085;-71
2021/08/27 03:56:22;;;;;;;10.18;2.60;;;14.80;99.90;;;;;;5074732;28;20032;-71
2021/08/27 03:58:48;;;;;;;12.98;3.20;;;14.80;99.90;;;;;;5074505;28;20044;-71
2021/08/27 04:01:14;;;;;;;11.77;2.83;;;14.80;99.90;;;;;;5074728;28;20378;-71
2021/08/27 04:03:40;;;;;;;8.65;2.67;;;14.80;99.90;;;;;;5073759;28;20388;-71
2021/08/27 04:06:08;;;;;;;12.98;3.08;;;14.80;99.90;;;;;;5074626;28;20040;-71
2021/08/27 04:08:44;;;;;;;12.32;3.30;;;14.90;99.90;;;;;;5072877;28;20053;-71
2021/08/27 04:11:12;;;;;;;9.32;3.15;;;14.90;99.90;;;;;;5074482;28;20036;-71
2021/08/27 04:13:39;;;;;;;12.32;3.22;;;14.90;99.90;;;;;;5074407;28;20047;-71
2021/08/27 04:16:05;;;;;;;11.93;3.38;;;15.00;99.90;;;;;;5074379;28;20420;-71
2021/08/27 04:18:30;;;;;;;9.23;2.72;;;14.90;99.90;;;;;;5074062;28;20045;-71
2021/08/27 04:20:57;;;;;;;12.55;3.33;;;14.90;99.90;;;;;;5074086;28;20094;-70
2021/08/27 04:23:24;;;;;;;10.30;3.28;;;14.90;99.90;;;;;;5074300;28;20041;-71
2021/08/27 04:25:50;;;;;;;14.13;3.30;;;14.90;99.90;;;;;;5074246;28;20040;-71
2021/08/27 04:28:16;;;;;;;11.48;2.38;;;14.90;99.90;;;;;;5074237;28;20090;-71
2021/08/27 04:30:41;;;;;;;21.83;2.75;;;14.90;99.90;;;;;;5073698;28;20048;-71
2021/08/27 04:33:07;;;;;;;12.00;2.40;;;14.90;99.90;;;;;;5072909;28;20492;-71
2021/08/27 04:35:32;;;;;;;16.45;2.58;;;15.00;99.90;;;;;;5073919;28;20083;-71
2021/08/27 04:37:58;;;;;;;10.80;2.40;;;14.90;99.90;;;;;;5074486;28;20036;-71
2021/08/27 04:40:24;;;;;;;12.25;2.65;;;15.00;99.90;;;;;;5073570;28;20037;-71
2021/08/27 04:42:50;;;;;;;12.88;2.50;;;15.00;99.90;;;;;;5073949;28;20036;-72
2021/08/27 04:45:16;;;;;;;12.50;3.47;;;15.00;99.90;;;;;;5074316;28;20379;-72
2021/08/27 04:47:42;;;;;;;13.25;2.90;;;14.90;99.90;;;;;;5073175;28;20054;-72
2021/08/27 04:50:09;;;;;;;12.88;2.60;;;15.00;99.90;;;;;;5073367;28;20044;-72
2021/08/27 04:52:36;;;;;;;10.98;2.55;;;14.90;99.90;;;;;;5073842;28;20056;-72
2021/08/27 04:55:02;;;;;;;12.43;3.63;;;15.00;99.90;;;;;;5073982;28;20044;-72
2021/08/27 04:57:29;;;;;;;18.63;4.05;;;15.00;99.90;;;;;;5072540;28;20124;-72
2021/08/27 04:59:55;;;;;;;7.63;2.88;;;15.00;99.90;;;;;;5073212;28;20480;-72
2021/08/27 05:02:21;;;;;;;16.35;4.03;;;15.00;99.90;;;;;;5073472;28;20029;-72
2021/08/27 05:04:46;;;;;;;14.13;2.60;;;15.00;99.90;;;;;;5073647;28;20044;-72
2021/08/27 05:07:12;;;;;;;14.18;2.47;;;15.10;99.90;;;;;;5072497;28;20139;-72
2021/08/27 05:09:38;;;;;;;12.70;1.92;;;15.10;99.90;;;;;;5073289;28;20082;-72
2021/08/27 05:12:04;;;;;;;8.18;2.53;;;15.20;99.90;;;;;;5073496;28;20037;-72
2021/08/27 05:14:29;;;;;;;12.77;2.78;;;15.10;99.90;;;;;;5073517;28;20032;-72
2021/08/27 05:16:55;;;;;;;18.98;4.28;;;15.20;99.90;;;;;;5073262;28;20089;-72
2021/08/27 05:19:21;;;;;;;10.50;2.55;;;15.20;99.90;;;;;;5071858;28;20489;-72
2021/08/27 05:21:46;;;;;;;17.20;2.35;;;15.20;99.90;;;;;;5073220;28;20043;-72
2021/08/27 05:24:12;;;;;;;13.80;3.28;;;15.20;99.90;;;;;;5073214;28;20404;-72
2021/08/27 05:26:38;;;;;;;11.07;2.65;;;15.20;99.90;;;;;;5073689;28;20116;-72
2021/08/27 05:29:04;;;;;;;9.23;2.80;;;15.20;99.90;;;;;;5073100;28;20067;-73
2021/08/27 05:31:30;;;;;;;12.85;3.15;;;15.20;99.90;;;;;;5073419;28;20161;-73
2021/08/27 05:33:59;;;;;;;10.65;2.65;;;15.20;99.90;;;;;;5073320;28;20480;-72
2021/08/27 05:36:25;;;;;;;10.00;2.53;;;15.20;99.90;;;;;;5073133;28;20059;-72
2021/08/27 05:38:50;;;;;;;14.45;3.60;;;15.20;99.90;;;;;;5072816;28;20043;-72
2021/08/27 05:41:16;;;;;;;8.63;2.67;;;15.20;99.90;;;;;;5071292;28;20388;-72
2021/08/27 05:43:41;;;;;;;10.23;2.85;;;15.20;99.90;;;;;;5073145;28;20072;-72
2021/08/27 05:46:07;;;;;;;10.43;3.25;;;15.20;99.90;;;;;;5072026;28;20044;-71
2021/08/27 05:48:33;;;;;;;13.32;2.60;;;15.20;99.90;;;;;;5072811;28;20036;-72
2021/08/27 05:50:58;;;;;;;8.85;2.65;;;15.20;99.90;;;;;;5073118;28;20041;-71
2021/08/27 05:53:24;;;;;;;9.88;2.78;;;15.20;99.90;;;;;;5072980;28;20098;-70
2021/08/27 05:55:49;;;;;;;12.20;2.53;;;15.20;99.90;;;;;;5073384;28;20044;-71
2021/08/27 05:58:15;;;;;;;15.15;2.72;;;15.30;99.90;;;;;;5071701;28;20546;-71
2021/08/27 06:00:41;;;;;;;7.85;2.28;;;15.30;99.90;;;;;;5072730;28;20063;-71
2021/08/27 06:03:07;;;;;;;10.55;2.15;;;15.10;99.90;;;;;;5054950;28;20044;-71
2021/08/27 06:05:32;;;;;;;7.50;1.90;;;15.10;99.90;;;;;;5072857;28;20032;-71
2021/08/27 06:07:58;;;;;;;5.50;1.70;;;15.00;99.90;;;;;;5073043;28;20086;-71
2021/08/27 06:10:24;;;;;;;8.40;2.30;;;15.00;99.90;;;;;;5072521;28;20409;-71
2021/08/27 06:12:49;;;;;;;9.43;2.38;;;14.90;99.90;;;;;;5071464;28;20040;-71
2021/08/27 06:15:16;;;;;;;6.88;2.20;;;14.90;99.90;;;;;;5071615;28;20047;-71
2021/08/27 06:17:42;;;;;;;12.55;3.00;;;14.90;99.90;;;;;;5072968;28;20047;-71
2021/08/27 06:20:09;;;;;;;11.00;2.65;;;15.00;99.90;;;;;;5072494;28;20393;-71
2021/08/27 06:22:37;;;;;;;14.80;2.17;;;15.00;99.90;;;;;;5072686;28;20041;-70
2021/08/27 06:25:03;;;;;;;12.50;2.42;;;14.90;99.90;;;;;;5072690;28;20492;-71
2021/08/27 06:27:28;;;;;;;12.25;3.10;;;15.00;99.90;;;;;;5071817;28;20048;-71
2021/08/27 06:29:54;;;;;;;8.70;2.30;;;15.00;99.90;;;;;;5071391;28;20040;-71
2021/08/27 06:32:20;;;;;;;13.68;2.88;;;15.00;99.90;;;;;;5073026;28;20040;-71
2021/08/27 06:34:45;;;;;;;11.25;2.03;;;15.10;99.90;;;;;;5072780;28;20036;-72
2021/08/27 06:37:11;;;;;;;9.88;2.10;;;15.10;99.90;;;;;;5072584;28;20052;-72
2021/08/27 06:39:37;;;;;;;11.63;2.72;;;15.10;99.90;;;;;;5072265;28;20086;-72
2021/08/27 06:42:04;;;;;;;12.30;2.70;;;15.20;99.90;;;;;;5072718;28;20113;-72
2021/08/27 06:44:30;;;;;;;14.82;3.22;;;15.10;99.90;;;;;;5073017;28;20490;-71
2021/08/27 06:46:55;;;;;;;14.68;2.72;;;15.20;99.90;;;;;;5072548;28;20072;-71
2021/08/27 06:49:21;;;;;;;13.88;2.40;;;15.30;99.90;;;;;;5072146;28;20393;-72
2021/08/27 06:51:47;;;;;;;8.50;2.20;;;15.30;99.90;;;;;;5072864;28;20037;-71
2021/08/27 06:54:12;;;;;;;6.55;2.08;;;15.50;99.90;;;;;;5075507;28;20404;-71
2021/08/27 06:56:38;;;;;;;10.55;2.13;;;15.90;99.90;;;;;;5076087;28;20035;-71
2021/08/27 06:59:04;;;;;;;9.00;2.08;;;16.40;99.90;;;;;;5075635;28;20488;-71
2021/08/27 07:01:29;;;;;;;9.07;2.28;;;16.80;99.90;;;;;;5075823;28;20385;-71
2021/08/27 07:03:55;;;;;;;8.00;2.35;;;16.90;99.90;;;;;;5076060;28;20086;-72
2021/08/27 07:06:21;;;;;;;7.88;1.98;;;16.70;99.90;;;;;;5075697;28;20041;-72
2021/08/27 07:08:47;;;;;;;12.95;2.33;;;16.40;99.90;;;;;;5075266;28;20040;-72
2021/08/27 07:11:15;;;;;;;7.85;2.13;;;16.30;99.90;;;;;;5075710;28;20044;-71
2021/08/27 07:13:41;;;;;;;13.52;2.85;;;16.20;99.90;;;;;;5075924;28;20032;-72
2021/08/27 07:16:07;;;;;;;8.55;1.50;;;16.00;99.90;;;;;;5075540;28;20079;-72
2021/08/27 07:18:32;;;;;;;5.05;1.60;;;15.80;99.90;;;;;;5074222;28;20091;-72
2021/08/27 07:20:58;;;;;;;9.75;2.55;;;15.80;99.90;;;;;;5075505;28;20037;-72
2021/08/27 07:23:24;;;;;;;6.10;1.70;;;15.80;99.90;;;;;;5075688;28;20037;-72
2021/08/27 07:25:50;;;;;;;8.05;1.80;;;15.80;99.90;;;;;;5075750;28;20028;-72
2021/08/27 07:28:16;;;;;;;9.18;1.75;;;15.90;99.90;;;;;;5075879;28;20354;-71
2021/08/27 07:30:42;;;;;;;5.78;2.03;;;16.00;99.90;;;;;;5075613;28;20040;-72
2021/08/27 07:33:07;;;;;;;7.53;1.58;;;16.10;99.90;;;;;;5075323;28;20079;-71
2021/08/27 07:35:33;;;;;;;12.98;2.58;;;16.10;99.90;;;;;;5075411;28;20076;-71
2021/08/27 07:37:59;;;;;;;9.32;2.38;;;16.10;99.90;;;;;;5075127;28;20051;-71
2021/08/27 07:40:25;;;;;;;12.00;3.00;;;16.10;99.90;;;;;;5074983;28;20045;-71
2021/08/27 07:42:51;;;;;;;7.13;2.60;;;16.00;99.90;;;;;;5074444;28;20049;-71
2021/08/27 07:45:17;;;;;;;9.32;2.50;;;16.00;99.90;;;;;;5075117;28;20458;-71
2021/08/27 07:47:43;;;;;;;8.57;2.20;;;16.00;99.90;;;;;;5074961;28;20051;-71
2021/08/27 07:50:11;;;;;;;9.18;2.38;;;16.40;99.90;;;;;;5074537;28;20067;-72
2021/08/27 07:52:37;;;;;;;8.48;2.20;;;16.40;99.90;;;;;;5075040;28;20528;-71
2021/08/27 07:55:04;;;;;;;7.22;2.10;;;16.50;99.90;;;;;;5075249;28;20094;-71
2021/08/27 07:57:29;;;;;;;8.73;2.28;;;16.50;99.90;;;;;;5073916;28;20078;-72
2021/08/27 07:59:55;;;;;;;13.52;3.10;;;16.60;99.90;;;;;;5074426;28;20064;-72
2021/08/27 08:02:21;;;;;;;9.50;2.03;;;16.90;99.90;;;;;;5074586;28;20039;-71
2021/08/27 08:04:46;;;;;;;8.38;2.20;;;17.40;99.90;;;;;;5073097;28;20045;-71
2021/08/27 08:07:12;;;;;;;12.07;2.10;;;17.60;99.90;;;;;;5074693;28;20128;-72
2021/08/27 08:09:38;;;;;;;8.30;2.83;;;17.60;99.90;;;;;;5074611;28;20048;-72
2021/08/27 08:12:04;;;;;;;7.25;2.67;;;17.60;99.90;;;;;;5074375;28;20489;-71
2021/08/27 08:14:29;;;;;;;6.78;2.28;;;18.00;99.90;;;;;;5074978;28;20029;-71
2021/08/27 08:16:55;;;;;;;7.85;2.90;;;18.30;99.90;;;;;;5073263;28;20439;-71
2021/08/27 08:19:21;;;;;;;4.57;2.13;;;18.20;99.90;;;;;;5074184;28;20416;-71
2021/08/27 08:21:47;;;;;;;7.68;2.85;;;18.10;99.90;;;;;;5074558;28;20033;-71
2021/08/27 08:24:12;;;;;;;8.43;2.40;;;18.10;99.90;;;;;;5074245;28;20174;-71
2021/08/27 08:26:38;;;;;;;10.48;2.28;;;18.20;99.90;;;;;;5074476;28;20043;-71
2021/08/27 08:29:05;;;;;;;8.23;2.20;;;18.00;99.90;;;;;;5073886;28;20124;-71
2021/08/27 08:31:31;;;;;;;8.75;2.15;;;17.90;99.90;;;;;;5074139;28;20068;-71
2021/08/27 08:33:57;;;;;;;7.15;1.80;;;17.80;99.90;;;;;;5056465;28;20075;-71
2021/08/27 08:36:23;;;;;;;9.85;1.88;;;17.80;99.90;;;;;;5072885;28;20168;-71
2021/08/27 08:38:50;;;;;;;12.63;2.47;;;18.10;99.90;;;;;;5072376;28;20044;-71
2021/08/27 08:41:17;;;;;;;7.00;1.98;;;18.50;99.90;;;;;;5073909;28;20067;-71
2021/08/27 08:43:44;;;;;;;9.15;1.95;;;18.50;99.90;;;;;;5073931;28;20079;-71
2021/08/27 08:46:10;;;;;;;6.07;2.35;;;18.60;99.90;;;;;;5074537;28;20079;-71
2021/08/27 08:48:36;;;;;;;7.85;2.45;;;19.00;99.90;;;;;;5073716;28;20457;-71
2021/08/27 08:51:05;;;;;;;7.95;2.97;;;18.90;99.90;;;;;;5073840;28;20048;-72
2021/08/27 08:53:34;;;;;;;10.20;2.38;;;18.60;99.90;;;;;;5072806;28;20040;-71
2021/08/27 08:56:02;;;;;;;8.55;2.35;;;18.30;99.90;;;;;;5092749;28;20051;-71
2021/08/27 08:58:29;;;;;;;12.93;2.63;;;18.00;99.90;;;;;;5093592;28;20070;-72
2021/08/27 09:00:54;;;;;;;9.43;2.13;;;18.10;99.90;;;;;;5093810;28;20040;-71
2021/08/27 09:03:20;;;;;;;12.13;2.38;;;18.30;99.90;;;;;;5094093;28;20111;-72
2021/08/27 09:05:48;;;;;;;11.48;2.75;;;18.30;99.90;;;;;;5094296;28;20044;-71
2021/08/27 09:08:33;;;;;;;9.82;2.63;;;18.60;99.90;;;;;;5093695;28;20044;-71
2021/08/27 09:11:00;;;;;;;6.90;1.95;;;18.80;99.90;;;;;;5094122;28;20028;-71
2021/08/27 09:13:32;;;;;;;10.65;2.22;;;18.90;99.90;;;;;;5092517;28;20468;-71
2021/08/27 09:16:06;;;;;;;10.57;2.00;;;19.00;99.90;;;;;;5075060;28;20474;-71
2021/08/27 09:18:46;;;;;;;10.27;2.53;;;19.20;99.90;;;;;;5093372;28;20097;-71
2021/08/27 09:21:28;;;;;;;7.10;1.90;;;19.30;99.90;;;;;;5092448;28;20051;-71
2021/08/27 09:24:14;;;;;;;8.27;2.13;;;19.60;99.90;;;;;;5093723;28;20111;-71
2021/08/27 09:26:41;;;;;;;8.15;2.50;;;19.50;99.90;;;;;;5093669;28;20076;-71
2021/08/27 09:29:07;;;;;;;4.57;2.00;;;19.60;99.90;;;;;;5093175;28;20484;-72
2021/08/27 09:31:40;;;;;;;9.60;2.35;;;19.30;99.90;;;;;;5092129;28;20173;-71
2021/08/27 09:34:06;;;;;;;;;;;19.30;99.90;;;;;;5093137;28;20459;-71
2021/08/27 09:36:33;;;;;;;6.00;2.08;;;18.80;99.90;;;;;;5093564;28;19916;-71
2021/08/27 09:39:11;;;;;;;5.80;1.92;;;18.50;99.90;;;;;;5091878;28;20051;-71
2021/08/27 09:41:37;;;;;;;8.95;2.20;;;18.60;99.90;;;;;;5092395;28;20040;-71
2021/08/27 09:44:06;;;;;;;8.68;1.75;;;18.60;99.90;;;;;;5093371;28;20040;-70
2021/08/27 09:46:45;;;;;;;9.30;2.10;;;18.80;99.90;;;;;;5074023;28;20048;-71
2021/08/27 09:49:27;;;;;;;11.07;2.30;;;18.40;99.90;;;;;;5073707;28;20430;-70
2021/08/27 09:51:54;;;;;;;6.10;1.95;;;18.40;99.90;;;;;;5092039;28;20040;-71
2021/08/27 09:54:29;;;;;;;7.75;2.05;;;18.00;99.90;;;;;;5093009;28;20037;-72
2021/08/27 09:57:00;;;;;;;5.43;1.70;;;18.00;99.90;;;;;;5093252;28;20047;-71
2021/08/27 09:59:46;;;;;;;7.55;1.73;;;17.80;99.90;;;;;;5090002;28;20412;-71
2021/08/27 10:02:15;;;;;;;4.43;1.15;;;17.60;99.90;;;;;;5072080;28;20045;-72
2021/08/27 10:04:54;;;;;;;3.20;1.40;;;17.80;99.90;;;;;;5073190;28;20048;-71
2021/08/27 10:07:30;;;;;;;4.03;1.50;;;18.00;99.90;;;;;;5073053;28;20091;-71
2021/08/27 10:10:00;;;;;;;6.72;2.15;;;18.00;99.90;;;;;;5071539;28;20065;-71
2021/08/27 10:12:31;;;;;;;6.57;2.03;;;18.10;99.90;;;;;;5071798;28;20044;-71
2021/08/27 10:14:57;;;;;;;7.35;2.28;;;18.40;99.90;;;;;;5072827;28;20033;-70
2021/08/27 10:17:23;;;;;;;5.60;1.90;;;18.60;99.90;;;;;;5071375;28;20044;-70
2021/08/27 10:19:49;;;;;;;8.90;2.00;;;18.90;99.90;;;;;;5072423;28;20029;-71
2021/08/27 10:22:15;;;;;;;9.02;2.10;;;18.80;99.90;;;;;;5072931;28;20486;-72
2021/08/27 10:24:43;;;;;;;11.90;2.08;;;18.30;99.90;;;;;;5073058;28;20051;-71
2021/08/27 10:27:10;;;;;;;10.38;2.58;;;17.80;99.90;;;;;;5074775;28;20115;-72
2021/08/27 10:29:48;;;;;;;7.53;2.05;;;17.60;99.90;;;;;;5076076;28;20058;-71
2021/08/27 10:32:14;;;;;;;10.43;2.15;;;17.60;99.90;;;;;;5075069;28;20487;-72
2021/08/27 10:34:42;;;;;;;10.70;2.83;;;17.70;99.90;;;;;;5075670;28;20048;-70
2021/08/27 10:37:08;;;;;;;7.63;2.97;;;17.70;99.90;;;;;;5076546;28;20083;-71
2021/08/27 10:39:40;;;;;;;8.35;2.95;;;17.80;99.90;;;;;;5076359;28;20567;-71
2021/08/27 10:42:07;;;;;;;7.65;2.58;;;17.60;99.90;;;;;;5076598;28;20416;-71
2021/08/27 10:44:51;;;;;;;11.50;3.20;;;17.40;99.90;;;;;;5075057;28;20033;-71
2021/08/27 10:47:18;;;;;;;6.72;2.83;;;17.50;99.90;;;;;;5076844;28;20084;-72
2021/08/27 10:49:46;;;;;;;10.40;2.35;;;17.40;99.90;;;;;;5075882;28;20102;-71
2021/08/27 10:52:33;;;;;;;7.90;2.10;;;17.40;99.90;;;;;;5074710;28;20044;-71
2021/08/27 10:55:02;;;;;;;6.82;2.30;;;17.30;99.90;;;;;;5075953;28;20481;-71
2021/08/27 10:57:28;;;;;;;5.65;1.63;;;17.30;99.90;;;;;;5076356;28;20106;-71
2021/08/27 11:00:01;;;;;;;5.75;1.23;;;17.40;99.90;;;;;;5057859;28;20043;-72
2021/08/27 11:02:28;;;;;;;5.00;1.45;;;17.20;99.90;;;;;;5076276;28;20033;-71
2021/08/27 11:04:55;;;;;;;6.10;1.60;;;17.10;99.90;;;;;;5075992;28;20045;-71
2021/08/27 11:07:26;;;;;;;6.43;1.33;;;17.10;99.90;;;;;;5075201;28;20076;-72
2021/08/27 11:10:09;;;;;;;6.15;1.77;;;17.00;99.90;;;;;;5075666;28;20039;-71
2021/08/27 11:12:35;;;;;;;;;;;17.10;99.90;;;;;;5058400;28;20048;-71
2021/08/27 11:15:26;;;;;;;6.35;1.92;;;17.30;99.90;;;;;;5076189;28;19924;-72
2021/08/27 11:18:13;;;;;;;6.95;1.80;;;17.40;99.90;;;;;;5076171;28;20048;-70
2021/08/27 11:20:40;;;;;;;6.97;1.73;;;17.70;99.90;;;;;;5075540;28;20037;-69
2021/08/27 11:23:05;;;;;;;10.50;2.25;;;17.80;99.90;;;;;;5075511;28;20040;-69
2021/08/27 11:25:32;;;;;;;6.45;2.33;;;18.00;99.90;;;;;;5075607;28;20040;-70
2021/08/27 11:28:13;;;;;;;10.20;2.40;;;18.10;99.90;;;;;;5075977;28;20036;-71
2021/08/27 11:30:40;;;;;;;9.00;2.35;;;18.20;99.90;;;;;;5075401;28;20035;-72
2021/08/27 11:33:05;;;;;;;8.60;2.45;;;18.50;99.90;;;;;;5075590;28;20041;-71
2021/08/27 11:35:45;;;;;;;8.88;2.05;;;18.40;99.90;;;;;;5075417;28;20397;-72
2021/08/27 11:38:11;;;;;;;8.90;2.17;;;18.20;99.90;;;;;;5074588;28;20040;-71
2021/08/27 11:40:36;;;;;;;8.55;2.08;;;18.30;99.90;;;;;;5073808;28;20048;-71
2021/08/27 11:43:02;;;;;;;5.40;1.45;;;18.50;99.90;;;;;;5075043;28;20032;-71
2021/08/27 11:45:32;;;;;;;4.82;1.77;;;18.70;99.90;;;;;;5073850;28;20045;-71
2021/08/27 11:47:58;;;;;;;6.00;1.50;;;18.70;99.90;;;;;;5075487;28;20040;-71
2021/08/27 11:50:27;;;;;;;7.97;1.33;;;18.80;99.90;;;;;;5073529;28;20473;-71
2021/08/27 11:52:58;;;;;;;4.50;1.17;;;18.80;99.90;;;;;;5075135;28;20044;-71
2021/08/27 11:55:24;;;;;;;4.60;1.45;;;18.90;99.90;;;;;;5073717;28;20052;-70
2021/08/27 11:58:00;;;;;;;5.63;1.70;;;18.70;99.90;;;;;;5073912;28;20040;-70
2021/08/27 12:00:42;;;;;;;4.97;1.55;;;18.60;99.90;;;;;;5073689;28;20044;-71
2021/08/27 12:03:09;;;;;;;8.40;1.90;;;18.60;99.90;;;;;;5074688;28;20041;-71
2021/08/27 12:05:35;;;;;;;5.93;1.77;;;18.40;99.90;;;;;;5074942;28;20048;-71
2021/08/27 12:08:09;;;;;;;6.95;2.13;;;18.50;99.90;;;;;;5073421;28;20155;-71
2021/08/27 12:10:39;;;;;;;7.10;1.42;;;18.30;99.90;;;;;;5073054;28;20055;-71
2021/08/27 12:13:06;;;;;;;4.53;1.60;;;18.40;99.90;;;;;;5074615;28;20094;-71
2021/08/27 12:15:37;;;;;;;7.50;1.73;;;18.40;99.90;;;;;;5073489;28;20049;-71
2021/08/27 12:18:14;;;;;;;5.60;1.45;;;18.50;99.90;;;;;;5074450;28;20046;-71
2021/08/27 12:20:42;;;;;;;8.27;1.65;;;18.40;99.90;;;;;;5072707;28;20045;-70
2021/08/27 12:23:16;;;;;;;7.90;1.90;;;18.40;99.90;;;;;;5074269;28;20076;-71
2021/08/27 12:25:45;;;;;;;7.80;1.95;;;18.30;99.90;;;;;;5073237;28;20040;-71
2021/08/27 12:28:16;;;;;;;7.43;2.65;;;18.20;99.90;;;;;;5056281;28;20047;-71
2021/08/27 12:30:44;;;;;;;7.13;2.17;;;18.10;99.90;;;;;;5074005;28;20047;-71
2021/08/27 12:33:09;;;;;;;10.90;2.53;;;18.10;99.90;;;;;;5074770;28;20048;-71
2021/08/27 12:35:35;;;;;;;10.15;2.28;;;18.00;99.90;;;;;;5072905;28;20049;-71
2021/08/27 12:38:02;;;;;;;7.53;1.85;;;18.00;99.90;;;;;;5074279;28;20052;-71
2021/08/27 12:40:33;;;;;;;4.88;1.73;;;18.10;99.90;;;;;;5073652;28;20040;-71
2021/08/27 12:43:09;;;;;;;5.07;1.65;;;18.20;99.90;;;;;;5074217;28;20045;-71
2021/08/27 12:45:45;;;;;;;6.25;1.48;;;18.20;99.90;;;;;;5072829;28;20075;-70
2021/08/27 12:48:14;;;;;;;7.15;2.03;;;18.10;99.90;;;;;;5072538;28;20040;-70
2021/08/27 12:50:55;;;;;;;7.57;1.40;;;18.10;99.90;;;;;;5072409;28;20097;-71